Brainerd Lakes Regional Airport
KBRD : rendu visible

Aérodrome :











RETROUVEZ-NOUS SUR...

 
LOGIN :

S'inscrire | Disclaimer

   EN    FR    IT 

 









Légende :    VFR   VFR Marginal   IFR   IFR Intensif   IFR Très Intensif
Visi : 
Plafond : 
>= 8 km
>= 3000ft
5 à 8 km
1000 à 3000 ft
1500m à 5 km
500 à 1000 ft
800 à 1500m
200 à 500 ft
< 800m
< 200 ft
Symboles :   Orages  Brouillard  Fortes neiges  Fortes précipitations  Vent > 20 kt






- Altitude de l'aérodrome : 1232 ft


KBRD - Brainerd Lakes Regional

DERNIER METAR :
  • 021453Z AUTO VRB03KT 8SM CLR M05/M07 A3031 RMK AO2 SLP284 I3000 T10501072 51016

METARs EXPIRÉS :
  • 021353Z AUTO 23003KT 6SM BR CLR M09/M11 A3029 RMK AO2 SLP280 I1000 T10891111
  • 021253Z AUTO 24005KT 7SM CLR M08/M10 A3028 RMK AO2 SLP278 T10831100

TAF KBRD
Valide du 02 à 12h jusqu'au 03 à 12h UTC


021125Z 0212/0312 VRB03KT P6SM FEW250
FM021700 32007G14KT P6SM SCT150
FM022000 31008G16KT P6SM BKN025
FM030500 29007KT P6SM SCT040
FIR KZMP / Amérique du Nord



MET'MAP, la Météo Aéronautique d'un coup d'oeil ! - Copyright ORBIFLY Décembre 2007 - Disclaimer

ORBIFLY MET'MAP TEAM :

Programmation & Développement : Alexandra Zaïnal
Sur une idée originale de : Baudouin d'Aumeries
Assistance à la programmation : Marc-Olivier Méhu
Soutien technique & logistique : Manuel Goepfert

Contact : metmap@orbifly.com




SOURCES & CREDITS :

   NOAA       Earth
Advisory